sensor_id;sensor_type;location;lat;lon;timestamp;pressure;altitude;pressure_sealevel;temperature;humidity
44839;BME280;30576;42.098;24.876;2022-07-10T00:01:05;99327.03;;;21.01;57.21
44839;BME280;30576;42.098;24.876;2022-07-10T00:03:31;99317.25;;;21.00;56.97
44839;BME280;30576;42.098;24.876;2022-07-10T00:05:56;99330.38;;;21.05;57.09
44839;BME280;30576;42.098;24.876;2022-07-10T00:08:22;99334.03;;;21.04;57.64
44839;BME280;30576;42.098;24.876;2022-07-10T00:10:47;99334.22;;;21.01;57.19
44839;BME280;30576;42.098;24.876;2022-07-10T00:13:13;99320.03;;;20.99;57.94
44839;BME280;30576;42.098;24.876;2022-07-10T00:15:38;99325.59;;;20.96;57.64
44839;BME280;30576;42.098;24.876;2022-07-10T00:18:04;99326.00;;;21.04;57.82
44839;BME280;30576;42.098;24.876;2022-07-10T00:20:29;99303.69;;;20.89;57.51
44839;BME280;30576;42.098;24.876;2022-07-10T00:22:55;99301.97;;;20.88;57.49
44839;BME280;30576;42.098;24.876;2022-07-10T00:25:20;99331.94;;;20.95;57.57
44839;BME280;30576;42.098;24.876;2022-07-10T00:27:46;99309.44;;;20.83;57.58
44839;BME280;30576;42.098;24.876;2022-07-10T00:30:11;99320.94;;;20.99;57.61
44839;BME280;30576;42.098;24.876;2022-07-10T00:32:37;99322.16;;;20.93;57.58
44839;BME280;30576;42.098;24.876;2022-07-10T00:35:04;99324.28;;;20.88;58.03
44839;BME280;30576;42.098;24.876;2022-07-10T00:37:29;99316.81;;;20.93;58.05
44839;BME280;30576;42.098;24.876;2022-07-10T00:39:55;99319.84;;;21.02;57.36
44839;BME280;30576;42.098;24.876;2022-07-10T00:42:21;99325.59;;;20.96;58.12
44839;BME280;30576;42.098;24.876;2022-07-10T00:44:46;99308.31;;;20.87;57.36
44839;BME280;30576;42.098;24.876;2022-07-10T00:47:12;99300.25;;;20.87;57.31
44839;BME280;30576;42.098;24.876;2022-07-10T00:49:39;99293.84;;;20.75;57.80
44839;BME280;30576;42.098;24.876;2022-07-10T00:52:10;99308.09;;;20.90;57.75
44839;BME280;30576;42.098;24.876;2022-07-10T00:54:37;99291.19;;;20.75;57.76
44839;BME280;30576;42.098;24.876;2022-07-10T00:57:04;99286.28;;;20.82;57.51
44839;BME280;30576;42.098;24.876;2022-07-10T00:59:30;99283.13;;;20.75;57.41
44839;BME280;30576;42.098;24.876;2022-07-10T01:01:56;99290.84;;;20.94;56.60
44839;BME280;30576;42.098;24.876;2022-07-10T01:04:22;99306.19;;;20.92;57.14
44839;BME280;30576;42.098;24.876;2022-07-10T01:06:47;99291.34;;;20.86;56.93
44839;BME280;30576;42.098;24.876;2022-07-10T01:09:13;99293.38;;;20.83;57.01
44839;BME280;30576;42.098;24.876;2022-07-10T01:11:39;99299.28;;;20.88;57.09
44839;BME280;30576;42.098;24.876;2022-07-10T01:14:05;99285.88;;;20.88;55.95
44839;BME280;30576;42.098;24.876;2022-07-10T01:16:31;99274.50;;;20.84;56.15
44839;BME280;30576;42.098;24.876;2022-07-10T01:18:58;99295.41;;;21.06;56.37
44839;BME280;30576;42.098;24.876;2022-07-10T01:21:34;99279.78;;;20.86;56.48
44839;BME280;30576;42.098;24.876;2022-07-10T01:24:04;99291.94;;;20.91;56.46
44839;BME280;30576;42.098;24.876;2022-07-10T01:26:30;99278.81;;;20.87;56.41
44839;BME280;30576;42.098;24.876;2022-07-10T01:28:57;99283.69;;;20.95;56.04
44839;BME280;30576;42.098;24.876;2022-07-10T01:31:27;99276.03;;;20.74;56.49
44839;BME280;30576;42.098;24.876;2022-07-10T01:33:53;99268.19;;;20.71;56.80
44839;BME280;30576;42.098;24.876;2022-07-10T01:36:22;99288.84;;;20.83;56.95
44839;BME280;30576;42.098;24.876;2022-07-10T01:38:51;99286.00;;;20.72;57.48
44839;BME280;30576;42.098;24.876;2022-07-10T01:41:17;99276.81;;;20.76;56.94
44839;BME280;30576;42.098;24.876;2022-07-10T01:43:42;99275.84;;;20.77;57.29
44839;BME280;30576;42.098;24.876;2022-07-10T01:46:11;99281.41;;;20.88;56.79
44839;BME280;30576;42.098;24.876;2022-07-10T01:48:38;99249.25;;;20.60;56.99
44839;BME280;30576;42.098;24.876;2022-07-10T01:51:05;99248.78;;;20.53;56.62
44839;BME280;30576;42.098;24.876;2022-07-10T01:53:31;99271.75;;;20.71;57.07
44839;BME280;30576;42.098;24.876;2022-07-10T01:55:57;99268.19;;;20.71;57.31
44839;BME280;30576;42.098;24.876;2022-07-10T01:58:23;99237.69;;;20.59;56.91
44839;BME280;30576;42.098;24.876;2022-07-10T02:00:48;99271.06;;;20.82;57.12
44839;BME280;30576;42.098;24.876;2022-07-10T02:03:14;99255.19;;;20.65;57.17
44839;BME280;30576;42.098;24.876;2022-07-10T02:06:15;99250.28;;;20.57;57.31
44839;BME280;30576;42.098;24.876;2022-07-10T02:08:40;99249.63;;;20.68;56.95
44839;BME280;30576;42.098;24.876;2022-07-10T02:11:06;99265.63;;;20.69;57.01
44839;BME280;30576;42.098;24.876;2022-07-10T02:13:31;99264.47;;;20.59;57.54
44839;BME280;30576;42.098;24.876;2022-07-10T02:15:57;99267.81;;;20.63;57.26
44839;BME280;30576;42.098;24.876;2022-07-10T02:18:23;99263.78;;;20.41;57.50
44839;BME280;30576;42.098;24.876;2022-07-10T02:20:50;99250.41;;;20.27;57.48
44839;BME280;30576;42.098;24.876;2022-07-10T02:23:16;99276.53;;;20.52;57.56
44839;BME280;30576;42.098;24.876;2022-07-10T02:25:41;99274.78;;;20.51;57.55
44839;BME280;30576;42.098;24.876;2022-07-10T02:28:10;99275.84;;;20.34;57.71
44839;BME280;30576;42.098;24.876;2022-07-10T02:30:35;99255.06;;;20.23;57.40
44839;BME280;30576;42.098;24.876;2022-07-10T02:33:01;99272.03;;;20.24;57.26
44839;BME280;30576;42.098;24.876;2022-07-10T02:35:27;99278.81;;;20.29;58.03
44839;BME280;30576;42.098;24.876;2022-07-10T02:37:52;99271.84;;;20.27;57.21
44839;BME280;30576;42.098;24.876;2022-07-10T02:40:18;99274.91;;;20.20;58.13
44839;BME280;30576;42.098;24.876;2022-07-10T02:42:43;99253.16;;;20.11;57.54
44839;BME280;30576;42.098;24.876;2022-07-10T02:45:09;99265.69;;;20.25;57.41
44839;BME280;30576;42.098;24.876;2022-07-10T02:47:35;99280.06;;;20.24;57.73
44839;BME280;30576;42.098;24.876;2022-07-10T02:50:00;99263.09;;;20.09;57.81
44839;BME280;30576;42.098;24.876;2022-07-10T02:52:26;99271.81;;;20.12;58.08
44839;BME280;30576;42.098;24.876;2022-07-10T02:54:52;99272.19;;;20.06;58.96
44839;BME280;30576;42.098;24.876;2022-07-10T02:57:18;99260.34;;;20.10;57.68
44839;BME280;30576;42.098;24.876;2022-07-10T02:59:43;99258.13;;;19.88;58.25
44839;BME280;30576;42.098;24.876;2022-07-10T03:02:09;99275.31;;;19.98;58.54
44839;BME280;30576;42.098;24.876;2022-07-10T03:04:34;99274.47;;;19.98;58.55
44839;BME280;30576;42.098;24.876;2022-07-10T03:07:00;99273.44;;;20.00;58.36
44839;BME280;30576;42.098;24.876;2022-07-10T03:09:26;99271.41;;;19.90;58.73
44839;BME280;30576;42.098;24.876;2022-07-10T03:11:51;99281.03;;;19.78;59.78
44839;BME280;30576;42.098;24.876;2022-07-10T03:14:17;99276.47;;;19.94;59.43
44839;BME280;30576;42.098;24.876;2022-07-10T03:16:43;99287.00;;;19.97;59.76
44839;BME280;30576;42.098;24.876;2022-07-10T03:19:08;99278.56;;;19.89;59.53
44839;BME280;30576;42.098;24.876;2022-07-10T03:21:34;99283.50;;;20.11;59.27
44839;BME280;30576;42.098;24.876;2022-07-10T03:24:00;99274.84;;;19.92;59.67
44839;BME280;30576;42.098;24.876;2022-07-10T03:26:25;99283.44;;;19.97;59.53
44839;BME280;30576;42.098;24.876;2022-07-10T03:28:51;99259.47;;;19.65;59.88
44839;BME280;30576;42.098;24.876;2022-07-10T03:31:17;99240.56;;;19.68;59.92
44839;BME280;30576;42.098;24.876;2022-07-10T03:33:42;99264.91;;;19.94;59.58
44839;BME280;30576;42.098;24.876;2022-07-10T03:36:08;99264.69;;;19.82;59.95
44839;BME280;30576;42.098;24.876;2022-07-10T03:38:33;99255.03;;;19.80;60.49
44839;BME280;30576;42.098;24.876;2022-07-10T03:40:59;99263.38;;;19.74;60.55
44839;BME280;30576;42.098;24.876;2022-07-10T03:43:24;99252.88;;;19.71;60.11
44839;BME280;30576;42.098;24.876;2022-07-10T03:45:50;99264.88;;;19.79;60.34
44839;BME280;30576;42.098;24.876;2022-07-10T03:48:16;99235.03;;;19.71;60.66
44839;BME280;30576;42.098;24.876;2022-07-10T03:50:42;99223.25;;;19.74;60.40
44839;BME280;30576;42.098;24.876;2022-07-10T03:53:08;99249.91;;;20.06;60.13
44839;BME280;30576;42.098;24.876;2022-07-10T03:55:34;99254.09;;;19.95;60.51
44839;BME280;30576;42.098;24.876;2022-07-10T03:58:00;99245.50;;;19.90;60.64
44839;BME280;30576;42.098;24.876;2022-07-10T04:00:29;99250.19;;;20.01;60.36
44839;BME280;30576;42.098;24.876;2022-07-10T04:02:59;99258.41;;;19.98;60.82
44839;BME280;30576;42.098;24.876;2022-07-10T04:05:26;99224.97;;;19.75;60.69
44839;BME280;30576;42.098;24.876;2022-07-10T04:07:51;99244.66;;;19.90;60.49
44839;BME280;30576;42.098;24.876;2022-07-10T04:10:17;99248.88;;;20.08;60.84
44839;BME280;30576;42.098;24.876;2022-07-10T04:12:44;99251.44;;;20.24;60.24
44839;BME280;30576;42.098;24.876;2022-07-10T04:15:09;99225.63;;;20.23;60.29
44839;BME280;30576;42.098;24.876;2022-07-10T04:17:35;99240.53;;;20.42;59.77
44839;BME280;30576;42.098;24.876;2022-07-10T04:20:01;99251.81;;;20.61;59.97
44839;BME280;30576;42.098;24.876;2022-07-10T04:22:27;99249.81;;;20.50;60.02
44839;BME280;30576;42.098;24.876;2022-07-10T04:24:54;99245.53;;;20.62;59.39
44839;BME280;30576;42.098;24.876;2022-07-10T04:27:19;99231.75;;;20.68;58.81
44839;BME280;30576;42.098;24.876;2022-07-10T04:29:45;99237.69;;;20.73;58.28
44839;BME280;30576;42.098;24.876;2022-07-10T04:32:10;99248.28;;;20.75;59.05
44839;BME280;30576;42.098;24.876;2022-07-10T04:34:36;99238.81;;;20.84;59.04
44839;BME280;30576;42.098;24.876;2022-07-10T04:37:02;99229.03;;;20.83;58.34
44839;BME280;30576;42.098;24.876;2022-07-10T04:39:28;99233.00;;;21.04;58.84
44839;BME280;30576;42.098;24.876;2022-07-10T04:41:53;99243.03;;;21.15;57.79
44839;BME280;30576;42.098;24.876;2022-07-10T04:44:19;99256.66;;;21.25;57.88
44839;BME280;30576;42.098;24.876;2022-07-10T04:46:45;99238.50;;;21.16;57.91
44839;BME280;30576;42.098;24.876;2022-07-10T04:49:10;99246.38;;;21.32;57.46
44839;BME280;30576;42.098;24.876;2022-07-10T04:51:36;99258.78;;;21.47;56.64
44839;BME280;30576;42.098;24.876;2022-07-10T04:54:01;99268.47;;;21.50;57.80
44839;BME280;30576;42.098;24.876;2022-07-10T04:56:27;99282.81;;;21.63;57.81
44839;BME280;30576;42.098;24.876;2022-07-10T04:58:53;99265.50;;;21.54;56.80
44839;BME280;30576;42.098;24.876;2022-07-10T05:01:19;99276.63;;;21.88;57.38
44839;BME280;30576;42.098;24.876;2022-07-10T05:03:45;99275.88;;;22.12;56.80
44839;BME280;30576;42.098;24.876;2022-07-10T05:06:10;99256.13;;;22.13;56.55
44839;BME280;30576;42.098;24.876;2022-07-10T05:08:36;99270.97;;;22.31;56.00
44839;BME280;30576;42.098;24.876;2022-07-10T05:11:01;99276.34;;;22.18;55.54
44839;BME280;30576;42.098;24.876;2022-07-10T05:13:27;99267.19;;;22.21;55.48
44839;BME280;30576;42.098;24.876;2022-07-10T05:15:53;99275.72;;;22.41;54.14
44839;BME280;30576;42.098;24.876;2022-07-10T05:18:18;99267.97;;;22.23;54.85
44839;BME280;30576;42.098;24.876;2022-07-10T05:20:43;99279.13;;;22.30;54.57
44839;BME280;30576;42.098;24.876;2022-07-10T05:23:10;99279.78;;;22.33;54.57
44839;BME280;30576;42.098;24.876;2022-07-10T05:25:37;99258.16;;;22.22;54.84
44839;BME280;30576;42.098;24.876;2022-07-10T05:28:04;99295.69;;;22.37;54.87
44839;BME280;30576;42.098;24.876;2022-07-10T05:30:30;99292.78;;;22.40;54.54
44839;BME280;30576;42.098;24.876;2022-07-10T05:32:55;99271.41;;;22.51;54.89
44839;BME280;30576;42.098;24.876;2022-07-10T05:35:21;99300.97;;;22.51;54.00
44839;BME280;30576;42.098;24.876;2022-07-10T05:37:46;99266.03;;;22.51;54.90
44839;BME280;30576;42.098;24.876;2022-07-10T05:40:12;99288.44;;;22.88;53.61
44839;BME280;30576;42.098;24.876;2022-07-10T05:42:38;99266.41;;;22.83;53.61
44839;BME280;30576;42.098;24.876;2022-07-10T05:45:03;99283.13;;;23.00;53.56
44839;BME280;30576;42.098;24.876;2022-07-10T05:47:31;99287.00;;;23.09;53.38
44839;BME280;30576;42.098;24.876;2022-07-10T05:49:56;99284.56;;;23.30;52.89
44839;BME280;30576;42.098;24.876;2022-07-10T05:52:22;99285.16;;;23.09;53.23
44839;BME280;30576;42.098;24.876;2022-07-10T05:54:47;99279.06;;;23.31;52.77
44839;BME280;30576;42.098;24.876;2022-07-10T05:57:13;99270.47;;;23.50;53.15
44839;BME280;30576;42.098;24.876;2022-07-10T05:59:38;99286.78;;;23.84;53.14
44839;BME280;30576;42.098;24.876;2022-07-10T06:02:04;99298.59;;;23.82;52.41
44839;BME280;30576;42.098;24.876;2022-07-10T06:04:29;99260.91;;;23.82;51.20
44839;BME280;30576;42.098;24.876;2022-07-10T06:06:55;99291.41;;;24.18;51.40
44839;BME280;30576;42.098;24.876;2022-07-10T06:09:21;99289.09;;;24.24;49.27
44839;BME280;30576;42.098;24.876;2022-07-10T06:11:46;99287.00;;;24.17;50.91
44839;BME280;30576;42.098;24.876;2022-07-10T06:14:13;99288.34;;;24.22;50.53
44839;BME280;30576;42.098;24.876;2022-07-10T06:16:39;99287.88;;;24.28;51.21
44839;BME280;30576;42.098;24.876;2022-07-10T06:19:04;99284.81;;;24.44;50.81
44839;BME280;30576;42.098;24.876;2022-07-10T06:21:30;99277.25;;;24.72;49.32
44839;BME280;30576;42.098;24.876;2022-07-10T06:23:55;99286.56;;;24.68;49.03
44839;BME280;30576;42.098;24.876;2022-07-10T06:26:21;99278.34;;;24.70;49.83
44839;BME280;30576;42.098;24.876;2022-07-10T06:28:46;99299.56;;;24.63;49.58
44839;BME280;30576;42.098;24.876;2022-07-10T06:31:12;99256.78;;;24.70;49.58
44839;BME280;30576;42.098;24.876;2022-07-10T06:33:38;99278.59;;;24.66;48.68
44839;BME280;30576;42.098;24.876;2022-07-10T06:36:04;99261.56;;;24.89;49.60
44839;BME280;30576;42.098;24.876;2022-07-10T06:38:30;99273.63;;;25.17;49.36
44839;BME280;30576;42.098;24.876;2022-07-10T06:40:56;99272.22;;;25.45;48.27
44839;BME280;30576;42.098;24.876;2022-07-10T06:43:21;99279.28;;;25.14;47.87
44839;BME280;30576;42.098;24.876;2022-07-10T06:45:47;99264.38;;;25.42;48.88
44839;BME280;30576;42.098;24.876;2022-07-10T06:48:13;99286.06;;;25.84;47.38
44839;BME280;30576;42.098;24.876;2022-07-10T06:50:40;99282.28;;;25.43;47.02
44839;BME280;30576;42.098;24.876;2022-07-10T06:53:06;99265.13;;;25.65;47.72
44839;BME280;30576;42.098;24.876;2022-07-10T06:55:32;99268.94;;;26.16;46.96
44839;BME280;30576;42.098;24.876;2022-07-10T06:57:58;99275.25;;;25.84;46.54
44839;BME280;30576;42.098;24.876;2022-07-10T07:00:24;99279.06;;;25.49;47.55
44839;BME280;30576;42.098;24.876;2022-07-10T07:02:50;99289.34;;;25.12;47.75
44839;BME280;30576;42.098;24.876;2022-07-10T07:05:15;99274.25;;;25.32;48.36
44839;BME280;30576;42.098;24.876;2022-07-10T07:07:41;99290.38;;;25.43;48.25
44839;BME280;30576;42.098;24.876;2022-07-10T07:10:07;99294.13;;;25.63;49.72
44839;BME280;30576;42.098;24.876;2022-07-10T07:12:33;99279.59;;;25.97;48.70
44839;BME280;30576;42.098;24.876;2022-07-10T07:14:59;99279.81;;;26.05;47.09
44839;BME280;30576;42.098;24.876;2022-07-10T07:17:25;99290.00;;;26.43;46.89
44839;BME280;30576;42.098;24.876;2022-07-10T07:19:59;99263.22;;;26.09;45.68
44839;BME280;30576;42.098;24.876;2022-07-10T07:22:43;99262.59;;;26.27;45.76
44839;BME280;30576;42.098;24.876;2022-07-10T07:25:27;99268.00;;;27.39;46.19
44839;BME280;30576;42.098;24.876;2022-07-10T07:27:53;99265.28;;;27.49;45.02
44839;BME280;30576;42.098;24.876;2022-07-10T07:30:19;99280.50;;;26.80;47.34
44839;BME280;30576;42.098;24.876;2022-07-10T07:32:45;99280.38;;;27.32;43.39
44839;BME280;30576;42.098;24.876;2022-07-10T07:35:12;99254.75;;;27.36;44.39
44839;BME280;30576;42.098;24.876;2022-07-10T07:37:39;99270.06;;;27.16;43.32
44839;BME280;30576;42.098;24.876;2022-07-10T07:40:12;99287.06;;;26.56;45.32
44839;BME280;30576;42.098;24.876;2022-07-10T07:42:39;99280.59;;;26.69;44.53
44839;BME280;30576;42.098;24.876;2022-07-10T07:45:06;99285.69;;;26.31;47.00
44839;BME280;30576;42.098;24.876;2022-07-10T07:47:45;99285.75;;;26.51;46.04
44839;BME280;30576;42.098;24.876;2022-07-10T07:50:15;99288.81;;;26.98;44.20
44839;BME280;30576;42.098;24.876;2022-07-10T07:52:41;99279.22;;;26.74;45.23
44839;BME280;30576;42.098;24.876;2022-07-10T07:55:07;99281.06;;;26.22;46.81
44839;BME280;30576;42.098;24.876;2022-07-10T07:57:32;99272.19;;;26.41;45.53
44839;BME280;30576;42.098;24.876;2022-07-10T07:59:58;99265.97;;;26.50;46.03
44839;BME280;30576;42.098;24.876;2022-07-10T08:02:23;99287.78;;;26.89;44.42
44839;BME280;30576;42.098;24.876;2022-07-10T08:04:49;99254.53;;;27.08;45.75
44839;BME280;30576;42.098;24.876;2022-07-10T08:07:14;99274.84;;;27.53;44.74
44839;BME280;30576;42.098;24.876;2022-07-10T08:09:40;99278.53;;;27.62;43.77
44839;BME280;30576;42.098;24.876;2022-07-10T08:12:06;99268.00;;;27.49;43.34
44839;BME280;30576;42.098;24.876;2022-07-10T08:14:31;99284.81;;;27.52;45.21
44839;BME280;30576;42.098;24.876;2022-07-10T08:16:57;99285.38;;;27.66;42.30
44839;BME280;30576;42.098;24.876;2022-07-10T08:19:22;99291.78;;;27.94;42.43
44839;BME280;30576;42.098;24.876;2022-07-10T08:21:48;99292.06;;;28.20;43.75
44839;BME280;30576;42.098;24.876;2022-07-10T08:24:14;99291.34;;;28.75;41.85
44839;BME280;30576;42.098;24.876;2022-07-10T08:26:40;99268.72;;;29.13;40.17
44839;BME280;30576;42.098;24.876;2022-07-10T08:29:05;99281.06;;;28.32;42.20
44839;BME280;30576;42.098;24.876;2022-07-10T08:31:31;99271.38;;;28.19;42.29
44839;BME280;30576;42.098;24.876;2022-07-10T08:33:59;99264.69;;;28.14;41.50
44839;BME280;30576;42.098;24.876;2022-07-10T08:36:25;99258.16;;;27.48;42.81
44839;BME280;30576;42.098;24.876;2022-07-10T08:38:52;99251.16;;;27.36;42.67
44839;BME280;30576;42.098;24.876;2022-07-10T08:41:23;99246.41;;;27.28;46.01
44839;BME280;30576;42.098;24.876;2022-07-10T08:43:49;99271.28;;;27.72;43.94
44839;BME280;30576;42.098;24.876;2022-07-10T08:46:15;99261.56;;;27.89;44.64
44839;BME280;30576;42.098;24.876;2022-07-10T08:48:47;99250.56;;;27.91;42.98
44839;BME280;30576;42.098;24.876;2022-07-10T08:51:19;99284.97;;;27.71;43.66
44839;BME280;30576;42.098;24.876;2022-07-10T08:53:49;99266.94;;;27.30;43.10
44839;BME280;30576;42.098;24.876;2022-07-10T08:56:16;99269.16;;;26.96;44.62
44839;BME280;30576;42.098;24.876;2022-07-10T08:58:42;99282.16;;;27.12;46.42
44839;BME280;30576;42.098;24.876;2022-07-10T09:01:07;99276.41;;;27.46;45.13
44839;BME280;30576;42.098;24.876;2022-07-10T09:03:33;99271.56;;;27.40;44.49
44839;BME280;30576;42.098;24.876;2022-07-10T09:05:59;99281.03;;;27.14;44.47
44839;BME280;30576;42.098;24.876;2022-07-10T09:08:26;99252.06;;;26.95;44.17
44839;BME280;30576;42.098;24.876;2022-07-10T09:11:15;99263.84;;;26.75;43.87
44839;BME280;30576;42.098;24.876;2022-07-10T09:14:03;99259.75;;;26.59;45.32
44839;BME280;30576;42.098;24.876;2022-07-10T09:16:31;99261.81;;;26.46;44.19
44839;BME280;30576;42.098;24.876;2022-07-10T09:21:39;99292.00;;;26.72;44.12
44839;BME280;30576;42.098;24.876;2022-07-10T09:24:07;99290.00;;;26.43;45.03
44839;BME280;30576;42.098;24.876;2022-07-10T09:26:33;99263.56;;;26.57;44.50
44839;BME280;30576;42.098;24.876;2022-07-10T09:29:10;99262.19;;;26.32;45.06
44839;BME280;30576;42.098;24.876;2022-07-10T09:32:11;99293.56;;;26.44;45.08
44839;BME280;30576;42.098;24.876;2022-07-10T09:37:24;99296.44;;;26.21;47.63
44839;BME280;30576;42.098;24.876;2022-07-10T09:40:01;99278.22;;;26.02;46.14
44839;BME280;30576;42.098;24.876;2022-07-10T09:42:32;99296.00;;;26.47;46.33
44839;BME280;30576;42.098;24.876;2022-07-10T09:47:37;99293.38;;;26.15;47.78
44839;BME280;30576;42.098;24.876;2022-07-10T09:50:03;99277.97;;;26.05;45.51
44839;BME280;30576;42.098;24.876;2022-07-10T09:52:29;99284.75;;;26.21;44.80
44839;BME280;30576;42.098;24.876;2022-07-10T09:54:56;99288.94;;;26.56;44.66
44839;BME280;30576;42.098;24.876;2022-07-10T09:57:27;99292.75;;;26.84;47.43
44839;BME280;30576;42.098;24.876;2022-07-10T09:59:53;99291.78;;;27.36;43.82
44839;BME280;30576;42.098;24.876;2022-07-10T10:02:21;99254.81;;;27.05;42.83
44839;BME280;30576;42.098;24.876;2022-07-10T10:04:48;99260.31;;;26.84;43.32
44839;BME280;30576;42.098;24.876;2022-07-10T10:07:18;99282.16;;;27.02;43.83
44839;BME280;30576;42.098;24.876;2022-07-10T10:09:51;99282.78;;;26.85;45.55
44839;BME280;30576;42.098;24.876;2022-07-10T10:12:44;99280.97;;;26.95;47.30
44839;BME280;30576;42.098;24.876;2022-07-10T10:15:13;99259.25;;;26.75;46.57
44839;BME280;30576;42.098;24.876;2022-07-10T10:17:40;99278.91;;;27.28;46.15
44839;BME280;30576;42.098;24.876;2022-07-10T10:20:07;99284.09;;;27.60;43.93
44839;BME280;30576;42.098;24.876;2022-07-10T10:22:53;99259.13;;;26.77;44.71
44839;BME280;30576;42.098;24.876;2022-07-10T10:25:23;99265.56;;;26.86;44.59
44839;BME280;30576;42.098;24.876;2022-07-10T10:27:50;99264.13;;;26.82;44.67
44839;BME280;30576;42.098;24.876;2022-07-10T10:30:16;99275.31;;;27.08;44.74
44839;BME280;30576;42.098;24.876;2022-07-10T10:32:41;99267.50;;;27.14;44.70
44839;BME280;30576;42.098;24.876;2022-07-10T10:35:07;99266.22;;;27.19;44.21
44839;BME280;30576;42.098;24.876;2022-07-10T10:37:35;99283.53;;;27.57;43.70
44839;BME280;30576;42.098;24.876;2022-07-10T10:40:02;99273.50;;;27.28;45.68
44839;BME280;30576;42.098;24.876;2022-07-10T10:42:35;99234.59;;;27.19;43.56
44839;BME280;30576;42.098;24.876;2022-07-10T10:48:04;99277.94;;;28.17;42.47
44839;BME280;30576;42.098;24.876;2022-07-10T10:53:19;99262.31;;;28.01;40.59
44839;BME280;30576;42.098;24.876;2022-07-10T10:58:45;99226.03;;;28.12;40.40
44839;BME280;30576;42.098;24.876;2022-07-10T11:06:48;99247.72;;;27.92;40.56
44839;BME280;30576;42.098;24.876;2022-07-10T11:12:08;99265.56;;;27.95;37.38
44839;BME280;30576;42.098;24.876;2022-07-10T11:14:39;99255.13;;;28.10;38.80
44839;BME280;30576;42.098;24.876;2022-07-10T11:17:06;99220.97;;;28.36;38.23
44839;BME280;30576;42.098;24.876;2022-07-10T11:19:35;99236.69;;;28.70;36.67
44839;BME280;30576;42.098;24.876;2022-07-10T11:22:27;99240.06;;;29.28;34.66
44839;BME280;30576;42.098;24.876;2022-07-10T11:25:59;99225.41;;;29.39;36.02
44839;BME280;30576;42.098;24.876;2022-07-10T11:28:10;99238.66;;;29.42;35.85
44839;BME280;30576;42.098;24.876;2022-07-10T11:30:50;99211.56;;;29.86;33.08
44839;BME280;30576;42.098;24.876;2022-07-10T11:33:16;99216.56;;;30.25;33.49
44839;BME280;30576;42.098;24.876;2022-07-10T11:35:46;99224.53;;;30.45;32.84
44839;BME280;30576;42.098;24.876;2022-07-10T11:38:12;99197.50;;;30.43;33.08
44839;BME280;30576;42.098;24.876;2022-07-10T11:40:38;99205.66;;;30.94;32.46
44839;BME280;30576;42.098;24.876;2022-07-10T11:43:04;99205.50;;;30.45;34.75
44839;BME280;30576;42.098;24.876;2022-07-10T11:45:33;99196.25;;;30.80;33.86
44839;BME280;30576;42.098;24.876;2022-07-10T11:48:02;99199.91;;;30.97;31.89
44839;BME280;30576;42.098;24.876;2022-07-10T11:50:37;99211.44;;;30.91;33.11
44839;BME280;30576;42.098;24.876;2022-07-10T11:53:04;99183.97;;;30.68;32.43
44839;BME280;30576;42.098;24.876;2022-07-10T11:55:30;99167.47;;;30.69;35.30
44839;BME280;30576;42.098;24.876;2022-07-10T11:57:57;99187.47;;;30.26;34.14
44839;BME280;30576;42.098;24.876;2022-07-10T12:00:28;99200.59;;;30.57;34.14
44839;BME280;30576;42.098;24.876;2022-07-10T12:02:56;99201.13;;;30.60;34.90
44839;BME280;30576;42.098;24.876;2022-07-10T12:05:38;99169.50;;;30.67;33.66
44839;BME280;30576;42.098;24.876;2022-07-10T12:08:04;99185.63;;;31.12;34.13
44839;BME280;30576;42.098;24.876;2022-07-10T12:10:31;99185.97;;;31.00;35.72
44839;BME280;30576;42.098;24.876;2022-07-10T12:13:24;99184.03;;;30.93;35.32
44839;BME280;30576;42.098;24.876;2022-07-10T12:15:49;99166.34;;;30.88;35.50
44839;BME280;30576;42.098;24.876;2022-07-10T12:18:17;99172.72;;;31.38;33.77
44839;BME280;30576;42.098;24.876;2022-07-10T12:20:43;99166.78;;;31.59;33.21
44839;BME280;30576;42.098;24.876;2022-07-10T12:23:16;99165.84;;;32.08;32.12
44839;BME280;30576;42.098;24.876;2022-07-10T12:25:43;99180.06;;;31.71;31.72
44839;BME280;30576;42.098;24.876;2022-07-10T12:28:09;99155.53;;;31.30;31.83
44839;BME280;30576;42.098;24.876;2022-07-10T12:30:41;99175.63;;;31.29;31.73
44839;BME280;30576;42.098;24.876;2022-07-10T12:33:21;99178.19;;;31.63;32.99
44839;BME280;30576;42.098;24.876;2022-07-10T12:38:22;99153.06;;;32.17;31.47
44839;BME280;30576;42.098;24.876;2022-07-10T12:40:48;99147.91;;;32.22;33.48
44839;BME280;30576;42.098;24.876;2022-07-10T12:43:27;99151.16;;;32.18;30.33
44839;BME280;30576;42.098;24.876;2022-07-10T12:46:14;99149.66;;;31.99;32.42
44839;BME280;30576;42.098;24.876;2022-07-10T12:51:28;99155.00;;;31.75;30.83
44839;BME280;30576;42.098;24.876;2022-07-10T12:53:54;99132.28;;;31.91;31.01
44839;BME280;30576;42.098;24.876;2022-07-10T12:56:36;99152.22;;;32.17;31.10
44839;BME280;30576;42.098;24.876;2022-07-10T12:59:22;99147.00;;;31.41;32.24
44839;BME280;30576;42.098;24.876;2022-07-10T13:01:49;99131.34;;;31.10;32.84
44839;BME280;30576;42.098;24.876;2022-07-10T13:04:14;99148.38;;;31.20;31.75
44839;BME280;30576;42.098;24.876;2022-07-10T13:06:41;99135.72;;;30.86;31.98
44839;BME280;30576;42.098;24.876;2022-07-10T13:11:46;99127.16;;;30.73;32.18
44839;BME280;30576;42.098;24.876;2022-07-10T13:14:11;99130.44;;;30.85;31.52
44839;BME280;30576;42.098;24.876;2022-07-10T13:16:37;99125.28;;;30.74;31.11
44839;BME280;30576;42.098;24.876;2022-07-10T13:19:03;99103.38;;;30.83;31.29
44839;BME280;30576;42.098;24.876;2022-07-10T13:21:28;99142.75;;;31.47;29.76
44839;BME280;30576;42.098;24.876;2022-07-10T13:23:54;99092.16;;;31.52;30.11
44839;BME280;30576;42.098;24.876;2022-07-10T13:26:20;99133.53;;;31.89;30.29